CheckWX is a tool to help pilots better visualize weather data.  It is not intended as a substitute for an official pre-flight weather briefing.

18:07:03 UTC

KPDK TAF
Dekalb-Peachtree Airport
Atlanta, Georgia, USA
KPDK 171730Z 1718/1818 32010G17KT P6SM SCT250 FM180000 33004KT P6SM SCT250 FM181000 02003KT P6SM SCT250 FM181500 09006KT P6SM SCT250

Oct-17@
18:00 UTC

Oct-17 @ 18:00 UTC

Oct-18@
00:00 UTC

Oct-18 @ 00:00 UTC

KPDK 171730Z 1718/1818 32010G17KT P6SM SCT250
Wind
  • 320° at 10 KTS
  • {Gusting to 17 KTS
Cloud Levels
  • Scattered at 25,000' AGL

Oct-18@
00:00 UTC

Oct-18 @ 00:00 UTC

Oct-18@
10:00 UTC

Oct-18 @ 10:00 UTC

FM180000 33004KT P6SM SCT250

From

From Standard forecast or significant change

Wind
  • 330° at 4 KTS
Cloud Levels
  • Scattered at 25,000' AGL

Oct-18@
10:00 UTC

Oct-18 @ 10:00 UTC

Oct-18@
15:00 UTC

Oct-18 @ 15:00 UTC

FM181000 02003KT P6SM SCT250

From

From Standard forecast or significant change

Wind
  • 020° at 3 KTS
Cloud Levels
  • Scattered at 25,000' AGL

Oct-18@
15:00 UTC

Oct-18 @ 15:00 UTC

Oct-18@
18:00 UTC

Oct-18 @ 18:00 UTC

FM181500 09006KT P6SM SCT250

From

From Standard forecast or significant change

Wind
  • 090° at 6 KTS
Cloud Levels
  • Scattered at 25,000' AGL